Anchorage/Merrill Field, Alaska
Current Conditions -  °F | °C
As of 6:53 PM on Wednesday 17 Dec 2014 (Local Time) from PAMR Reporting Station
Clear Clear  
Wind Chill: 27°   Ceiling: Unl
Heat Index: 27°   Visibility: 10mi
Dew Point: 24°   Wind: 0mph
Humidity: 89%   Direction: NA
Pressure: 29.58"   Gusts: NA
Location:  61.21°N, 149.85°W
Report Text: PAMR 180353Z 00000KT 10SM CLR M03/M04 A2958 RMK AO2 SLP017 I1001 T10281044
Loading
Personal Weather Stations






























Interactive Weather Map New forecast layout! Learn more

10-Day Weather Forecast

Advertisements
Track Severe Weather on mobile